sensor_id;sensor_type;location;lat;lon;timestamp;pressure;altitude;pressure_sealevel;temperature;humidity
37368;BME280;23240;43.210;27.910;2023-05-01T00:01:13;100973.81;;;9.64;100.00
37368;BME280;23240;43.210;27.910;2023-05-01T00:03:38;100971.13;;;9.64;100.00
37368;BME280;23240;43.210;27.910;2023-05-01T00:06:03;100969.44;;;9.63;100.00
37368;BME280;23240;43.210;27.910;2023-05-01T00:08:30;100972.28;;;9.73;100.00
37368;BME280;23240;43.210;27.910;2023-05-01T00:10:55;100980.28;;;9.73;100.00
37368;BME280;23240;43.210;27.910;2023-05-01T00:13:21;100979.72;;;9.81;100.00
37368;BME280;23240;43.210;27.910;2023-05-01T00:15:48;100983.13;;;9.83;100.00
37368;BME280;23240;43.210;27.910;2023-05-01T00:18:14;100978.16;;;9.89;100.00
37368;BME280;23240;43.210;27.910;2023-05-01T00:20:39;100982.66;;;9.89;100.00
37368;BME280;23240;43.210;27.910;2023-05-01T00:23:04;100987.56;;;9.95;100.00
37368;BME280;23240;43.210;27.910;2023-05-01T00:25:30;100989.50;;;9.93;100.00
37368;BME280;23240;43.210;27.910;2023-05-01T00:27:56;100991.84;;;9.97;100.00
37368;BME280;23240;43.210;27.910;2023-05-01T00:30:23;100990.28;;;10.06;100.00
37368;BME280;23240;43.210;27.910;2023-05-01T00:32:49;100994.56;;;10.20;100.00
37368;BME280;23240;43.210;27.910;2023-05-01T00:35:14;100996.72;;;10.27;100.00
37368;BME280;23240;43.210;27.910;2023-05-01T00:37:40;100988.47;;;10.31;100.00
37368;BME280;23240;43.210;27.910;2023-05-01T00:40:06;100994.91;;;10.39;100.00
37368;BME280;23240;43.210;27.910;2023-05-01T00:42:35;100997.59;;;10.39;100.00
37368;BME280;23240;43.210;27.910;2023-05-01T00:45:01;100995.06;;;10.49;100.00
37368;BME280;23240;43.210;27.910;2023-05-01T00:47:26;100997.88;;;10.59;100.00
37368;BME280;23240;43.210;27.910;2023-05-01T00:49:52;100993.13;;;10.62;100.00
37368;BME280;23240;43.210;27.910;2023-05-01T00:52:18;101003.91;;;10.73;100.00
37368;BME280;23240;43.210;27.910;2023-05-01T00:54:43;101001.94;;;10.75;100.00
37368;BME280;23240;43.210;27.910;2023-05-01T00:57:09;101005.09;;;10.80;100.00
37368;BME280;23240;43.210;27.910;2023-05-01T00:59:34;101017.16;;;10.86;100.00
37368;BME280;23240;43.210;27.910;2023-05-01T01:02:01;101004.50;;;10.99;100.00
37368;BME280;23240;43.210;27.910;2023-05-01T01:04:26;101005.13;;;11.03;100.00
37368;BME280;23240;43.210;27.910;2023-05-01T01:17:23;101018.16;;;10.85;100.00
37368;BME280;23240;43.210;27.910;2023-05-01T01:22:32;101011.44;;;10.79;100.00
37368;BME280;23240;43.210;27.910;2023-05-01T01:33:06;101028.22;;;10.59;100.00
37368;BME280;23240;43.210;27.910;2023-05-01T01:35:41;101022.38;;;10.54;100.00
37368;BME280;23240;43.210;27.910;2023-05-01T01:38:13;101017.72;;;10.56;100.00
37368;BME280;23240;43.210;27.910;2023-05-01T01:41:04;101012.59;;;10.53;100.00
37368;BME280;23240;43.210;27.910;2023-05-01T01:43:26;101014.56;;;10.51;100.00
37368;BME280;23240;43.210;27.910;2023-05-01T01:45:59;101025.50;;;10.48;100.00
37368;BME280;23240;43.210;27.910;2023-05-01T01:48:28;101029.38;;;10.44;100.00
37368;BME280;23240;43.210;27.910;2023-05-01T01:50:54;101029.16;;;10.47;100.00
37368;BME280;23240;43.210;27.910;2023-05-01T01:53:22;101029.13;;;10.36;100.00
37368;BME280;23240;43.210;27.910;2023-05-01T01:55:48;101032.53;;;10.38;100.00
37368;BME280;23240;43.210;27.910;2023-05-01T01:58:14;101027.34;;;10.23;100.00
37368;BME280;23240;43.210;27.910;2023-05-01T02:00:40;101028.00;;;10.27;100.00
37368;BME280;23240;43.210;27.910;2023-05-01T02:03:08;101030.34;;;10.19;100.00
37368;BME280;23240;43.210;27.910;2023-05-01T02:05:34;101027.25;;;10.25;100.00
37368;BME280;23240;43.210;27.910;2023-05-01T02:08:00;101026.53;;;10.34;100.00
37368;BME280;23240;43.210;27.910;2023-05-01T02:10:26;101024.97;;;10.32;100.00
37368;BME280;23240;43.210;27.910;2023-05-01T02:12:52;101031.56;;;10.39;100.00
37368;BME280;23240;43.210;27.910;2023-05-01T02:15:18;101033.53;;;10.48;100.00
37368;BME280;23240;43.210;27.910;2023-05-01T02:17:44;101043.88;;;10.41;100.00
37368;BME280;23240;43.210;27.910;2023-05-01T02:20:10;101045.00;;;10.50;100.00
37368;BME280;23240;43.210;27.910;2023-05-01T02:22:37;101045.00;;;10.50;100.00
37368;BME280;23240;43.210;27.910;2023-05-01T02:25:03;101042.56;;;10.58;100.00
37368;BME280;23240;43.210;27.910;2023-05-01T02:28:12;101054.28;;;10.68;100.00
37368;BME280;23240;43.210;27.910;2023-05-01T02:30:19;101057.72;;;10.81;100.00
37368;BME280;23240;43.210;27.910;2023-05-01T02:32:44;101055.56;;;10.98;100.00
37368;BME280;23240;43.210;27.910;2023-05-01T02:35:10;101055.56;;;11.09;100.00
37368;BME280;23240;43.210;27.910;2023-05-01T02:37:36;101059.09;;;11.21;100.00
37368;BME280;23240;43.210;27.910;2023-05-01T02:40:02;101060.56;;;11.36;100.00
37368;BME280;23240;43.210;27.910;2023-05-01T02:42:28;101057.00;;;11.69;100.00
37368;BME280;23240;43.210;27.910;2023-05-01T02:44:56;101047.69;;;11.96;100.00
37368;BME280;23240;43.210;27.910;2023-05-01T02:47:21;101050.28;;;12.18;100.00
37368;BME280;23240;43.210;27.910;2023-05-01T02:49:47;101045.22;;;12.36;98.13
37368;BME280;23240;43.210;27.910;2023-05-01T02:52:14;101062.09;;;12.59;91.17
37368;BME280;23240;43.210;27.910;2023-05-01T02:54:41;101058.78;;;12.76;85.88
37368;BME280;23240;43.210;27.910;2023-05-01T02:57:08;101057.59;;;12.90;82.65
37368;BME280;23240;43.210;27.910;2023-05-01T02:59:34;101057.25;;;13.04;75.46
37368;BME280;23240;43.210;27.910;2023-05-01T03:02:00;101067.66;;;13.19;73.08
37368;BME280;23240;43.210;27.910;2023-05-01T03:04:26;101076.97;;;13.26;71.24
37368;BME280;23240;43.210;27.910;2023-05-01T03:06:51;101072.88;;;13.31;71.81
37368;BME280;23240;43.210;27.910;2023-05-01T03:09:18;101073.06;;;13.40;88.97
37368;BME280;23240;43.210;27.910;2023-05-01T03:11:43;101080.41;;;13.37;100.00
37368;BME280;23240;43.210;27.910;2023-05-01T03:14:08;101087.44;;;13.08;100.00
37368;BME280;23240;43.210;27.910;2023-05-01T03:16:35;101090.84;;;12.89;100.00
37368;BME280;23240;43.210;27.910;2023-05-01T03:19:00;101090.25;;;12.85;100.00
37368;BME280;23240;43.210;27.910;2023-05-01T03:21:25;101090.00;;;12.89;100.00
37368;BME280;23240;43.210;27.910;2023-05-01T03:23:51;101092.31;;;12.93;100.00
37368;BME280;23240;43.210;27.910;2023-05-01T03:26:16;101087.25;;;13.00;100.00
37368;BME280;23240;43.210;27.910;2023-05-01T03:28:41;101108.25;;;13.06;100.00
37368;BME280;23240;43.210;27.910;2023-05-01T03:31:07;101105.03;;;13.12;100.00
37368;BME280;23240;43.210;27.910;2023-05-01T03:33:32;101098.13;;;12.98;100.00
37368;BME280;23240;43.210;27.910;2023-05-01T03:36:01;101100.38;;;12.72;100.00
37368;BME280;23240;43.210;27.910;2023-05-01T03:38:28;101110.25;;;12.51;100.00
37368;BME280;23240;43.210;27.910;2023-05-01T03:40:53;101112.44;;;12.25;100.00
37368;BME280;23240;43.210;27.910;2023-05-01T03:43:19;101117.78;;;12.25;100.00
37368;BME280;23240;43.210;27.910;2023-05-01T03:45:44;101118.13;;;12.31;100.00
37368;BME280;23240;43.210;27.910;2023-05-01T03:48:10;101117.44;;;12.50;100.00
37368;BME280;23240;43.210;27.910;2023-05-01T03:50:35;101123.16;;;12.57;100.00
37368;BME280;23240;43.210;27.910;2023-05-01T03:53:00;101123.44;;;12.54;100.00
37368;BME280;23240;43.210;27.910;2023-05-01T03:55:26;101129.31;;;12.48;100.00
37368;BME280;23240;43.210;27.910;2023-05-01T03:57:51;101127.03;;;12.43;100.00
37368;BME280;23240;43.210;27.910;2023-05-01T04:00:16;101139.31;;;12.46;100.00
37368;BME280;23240;43.210;27.910;2023-05-01T04:02:42;101139.78;;;12.51;100.00
37368;BME280;23240;43.210;27.910;2023-05-01T04:05:07;101143.78;;;12.68;100.00
37368;BME280;23240;43.210;27.910;2023-05-01T04:07:33;101134.72;;;12.90;100.00
37368;BME280;23240;43.210;27.910;2023-05-01T04:09:58;101143.84;;;13.19;100.00
37368;BME280;23240;43.210;27.910;2023-05-01T04:12:24;101142.81;;;13.31;100.00
37368;BME280;23240;43.210;27.910;2023-05-01T04:14:49;101136.44;;;13.32;100.00
37368;BME280;23240;43.210;27.910;2023-05-01T04:17:14;101145.38;;;13.33;100.00
37368;BME280;23240;43.210;27.910;2023-05-01T04:19:40;101145.72;;;13.40;100.00
37368;BME280;23240;43.210;27.910;2023-05-01T04:22:05;101152.56;;;13.53;100.00
37368;BME280;23240;43.210;27.910;2023-05-01T04:24:30;101152.38;;;13.45;100.00
37368;BME280;23240;43.210;27.910;2023-05-01T04:26:56;101159.97;;;13.30;100.00
37368;BME280;23240;43.210;27.910;2023-05-01T04:29:22;101161.19;;;13.26;100.00
37368;BME280;23240;43.210;27.910;2023-05-01T04:31:48;101155.66;;;13.07;100.00
37368;BME280;23240;43.210;27.910;2023-05-01T04:34:13;101163.72;;;13.07;100.00
37368;BME280;23240;43.210;27.910;2023-05-01T04:36:39;101152.56;;;12.91;100.00
37368;BME280;23240;43.210;27.910;2023-05-01T04:39:04;101162.28;;;13.03;100.00
37368;BME280;23240;43.210;27.910;2023-05-01T04:41:29;101163.59;;;13.29;100.00
37368;BME280;23240;43.210;27.910;2023-05-01T04:43:55;101159.47;;;13.46;100.00
37368;BME280;23240;43.210;27.910;2023-05-01T04:46:20;101159.25;;;13.59;100.00
37368;BME280;23240;43.210;27.910;2023-05-01T04:48:46;101171.78;;;13.49;100.00
37368;BME280;23240;43.210;27.910;2023-05-01T04:51:11;101170.81;;;13.50;100.00
37368;BME280;23240;43.210;27.910;2023-05-01T04:53:36;101175.56;;;13.36;100.00
37368;BME280;23240;43.210;27.910;2023-05-01T04:56:02;101182.88;;;13.25;100.00
37368;BME280;23240;43.210;27.910;2023-05-01T04:58:27;101181.97;;;13.24;100.00
37368;BME280;23240;43.210;27.910;2023-05-01T05:00:52;101189.38;;;13.11;100.00
37368;BME280;23240;43.210;27.910;2023-05-01T05:03:17;101183.66;;;13.04;100.00
37368;BME280;23240;43.210;27.910;2023-05-01T05:05:43;101192.25;;;12.98;100.00
37368;BME280;23240;43.210;27.910;2023-05-01T05:08:09;101197.56;;;12.89;100.00
37368;BME280;23240;43.210;27.910;2023-05-01T05:10:35;101197.31;;;12.92;100.00
37368;BME280;23240;43.210;27.910;2023-05-01T05:13:00;101197.47;;;13.11;100.00
37368;BME280;23240;43.210;27.910;2023-05-01T05:15:25;101195.56;;;13.65;100.00
37368;BME280;23240;43.210;27.910;2023-05-01T05:17:51;101197.75;;;14.30;100.00
37368;BME280;23240;43.210;27.910;2023-05-01T05:20:16;101192.19;;;14.91;100.00
37368;BME280;23240;43.210;27.910;2023-05-01T05:22:41;101197.19;;;15.62;92.39
37368;BME280;23240;43.210;27.910;2023-05-01T05:25:07;101195.22;;;16.02;81.50
37368;BME280;23240;43.210;27.910;2023-05-01T05:27:32;101190.34;;;16.15;76.34
37368;BME280;23240;43.210;27.910;2023-05-01T05:30:04;101204.88;;;16.32;73.39
37368;BME280;23240;43.210;27.910;2023-05-01T05:32:30;101203.19;;;16.49;70.18
37368;BME280;23240;43.210;27.910;2023-05-01T05:34:55;101204.38;;;16.46;70.17
37368;BME280;23240;43.210;27.910;2023-05-01T05:37:20;101207.06;;;16.46;70.78
37368;BME280;23240;43.210;27.910;2023-05-01T05:39:49;101209.81;;;17.00;66.49
37368;BME280;23240;43.210;27.910;2023-05-01T05:42:14;101208.63;;;17.20;65.55
37368;BME280;23240;43.210;27.910;2023-05-01T05:44:39;101201.97;;;17.58;63.25
37368;BME280;23240;43.210;27.910;2023-05-01T05:47:05;101202.34;;;17.63;62.71
37368;BME280;23240;43.210;27.910;2023-05-01T05:49:30;101210.81;;;18.20;61.10
37368;BME280;23240;43.210;27.910;2023-05-01T05:51:55;101212.03;;;18.34;59.88
37368;BME280;23240;43.210;27.910;2023-05-01T05:54:21;101210.66;;;18.30;59.62
37368;BME280;23240;43.210;27.910;2023-05-01T05:56:46;101208.38;;;18.60;57.77
37368;BME280;23240;43.210;27.910;2023-05-01T05:59:11;101208.13;;;19.04;56.34
37368;BME280;23240;43.210;27.910;2023-05-01T06:01:37;101207.75;;;19.56;55.79
37368;BME280;23240;43.210;27.910;2023-05-01T06:04:04;101209.47;;;19.73;55.15
37368;BME280;23240;43.210;27.910;2023-05-01T06:06:29;101207.84;;;19.95;54.81
37368;BME280;23240;43.210;27.910;2023-05-01T06:08:56;101209.72;;;20.02;55.08
37368;BME280;23240;43.210;27.910;2023-05-01T06:11:21;101208.47;;;20.52;54.46
37368;BME280;23240;43.210;27.910;2023-05-01T06:13:47;101208.69;;;20.74;52.61
37368;BME280;23240;43.210;27.910;2023-05-01T06:16:12;101212.31;;;20.66;51.88
37368;BME280;23240;43.210;27.910;2023-05-01T06:18:39;101219.38;;;20.52;49.90
37368;BME280;23240;43.210;27.910;2023-05-01T06:21:05;101213.00;;;20.29;49.04
37368;BME280;23240;43.210;27.910;2023-05-01T06:23:30;101219.03;;;20.56;48.24
37368;BME280;23240;43.210;27.910;2023-05-01T06:25:58;101223.78;;;20.53;48.18
37368;BME280;23240;43.210;27.910;2023-05-01T06:28:23;101234.28;;;20.88;45.58
37368;BME280;23240;43.210;27.910;2023-05-01T06:30:48;101231.81;;;21.01;43.62
37368;BME280;23240;43.210;27.910;2023-05-01T06:35:39;101241.72;;;21.77;41.34
37368;BME280;23240;43.210;27.910;2023-05-01T06:38:04;101240.72;;;22.23;39.91
37368;BME280;23240;43.210;27.910;2023-05-01T06:40:30;101242.22;;;21.43;39.14
37368;BME280;23240;43.210;27.910;2023-05-01T06:42:56;101251.78;;;21.62;38.30
37368;BME280;23240;43.210;27.910;2023-05-01T06:45:21;101248.84;;;21.64;38.35
37368;BME280;23240;43.210;27.910;2023-05-01T06:47:47;101246.34;;;21.39;37.26
37368;BME280;23240;43.210;27.910;2023-05-01T06:50:12;101256.47;;;21.68;37.75
37368;BME280;23240;43.210;27.910;2023-05-01T06:52:38;101249.06;;;21.77;36.58
37368;BME280;23240;43.210;27.910;2023-05-01T06:55:04;101251.19;;;22.19;36.09
37368;BME280;23240;43.210;27.910;2023-05-01T06:57:29;101256.66;;;22.19;36.32
37368;BME280;23240;43.210;27.910;2023-05-01T06:59:55;101260.13;;;22.79;35.42
37368;BME280;23240;43.210;27.910;2023-05-01T07:02:20;101262.44;;;22.97;35.08
37368;BME280;23240;43.210;27.910;2023-05-01T07:04:45;101260.41;;;22.69;34.01
37368;BME280;23240;43.210;27.910;2023-05-01T07:07:11;101269.59;;;22.98;33.26
37368;BME280;23240;43.210;27.910;2023-05-01T07:09:36;101263.94;;;23.42;32.79
37368;BME280;23240;43.210;27.910;2023-05-01T07:12:03;101264.47;;;23.31;31.59
37368;BME280;23240;43.210;27.910;2023-05-01T07:14:28;101268.22;;;23.51;31.38
37368;BME280;23240;43.210;27.910;2023-05-01T07:16:54;101277.84;;;23.69;29.60
37368;BME280;23240;43.210;27.910;2023-05-01T07:19:19;101273.66;;;23.73;29.80
37368;BME280;23240;43.210;27.910;2023-05-01T07:21:45;101283.22;;;23.83;29.61
37368;BME280;23240;43.210;27.910;2023-05-01T07:24:10;101274.25;;;23.96;29.57
37368;BME280;23240;43.210;27.910;2023-05-01T07:26:36;101274.84;;;24.20;29.70
37368;BME280;23240;43.210;27.910;2023-05-01T07:29:02;101279.19;;;24.42;28.96
37368;BME280;23240;43.210;27.910;2023-05-01T07:31:28;101284.84;;;24.82;27.92
37368;BME280;23240;43.210;27.910;2023-05-01T07:33:53;101293.41;;;25.20;25.70
37368;BME280;23240;43.210;27.910;2023-05-01T07:36:19;101288.31;;;25.17;25.70
37368;BME280;23240;43.210;27.910;2023-05-01T07:38:46;101299.75;;;25.34;26.71
37368;BME280;23240;43.210;27.910;2023-05-01T07:41:11;101307.34;;;25.45;25.69
37368;BME280;23240;43.210;27.910;2023-05-01T07:43:37;101299.34;;;25.90;26.34
37368;BME280;23240;43.210;27.910;2023-05-01T07:46:02;101301.06;;;25.78;24.89
37368;BME280;23240;43.210;27.910;2023-05-01T07:48:27;101303.97;;;25.56;25.41
37368;BME280;23240;43.210;27.910;2023-05-01T07:50:53;101303.53;;;25.46;25.16
37368;BME280;23240;43.210;27.910;2023-05-01T07:53:19;101317.72;;;25.63;26.21
37368;BME280;23240;43.210;27.910;2023-05-01T07:55:44;101311.13;;;26.10;25.32
37368;BME280;23240;43.210;27.910;2023-05-01T07:58:09;101318.28;;;26.38;24.74
37368;BME280;23240;43.210;27.910;2023-05-01T08:00:35;101323.38;;;26.14;25.34
37368;BME280;23240;43.210;27.910;2023-05-01T08:03:01;101316.84;;;26.22;24.12
37368;BME280;23240;43.210;27.910;2023-05-01T08:05:26;101322.75;;;26.26;24.35
37368;BME280;23240;43.210;27.910;2023-05-01T08:07:51;101323.44;;;25.88;24.53
37368;BME280;23240;43.210;27.910;2023-05-01T08:10:17;101325.63;;;25.11;25.81
37368;BME280;23240;43.210;27.910;2023-05-01T08:12:42;101333.78;;;24.92;26.29
37368;BME280;23240;43.210;27.910;2023-05-01T08:15:07;101335.91;;;25.03;26.34
37368;BME280;23240;43.210;27.910;2023-05-01T08:17:36;101337.22;;;25.13;25.45
37368;BME280;23240;43.210;27.910;2023-05-01T08:20:01;101332.00;;;25.25;25.42
37368;BME280;23240;43.210;27.910;2023-05-01T08:22:27;101334.72;;;25.19;25.99
37368;BME280;23240;43.210;27.910;2023-05-01T08:24:52;101335.97;;;25.09;25.49
37368;BME280;23240;43.210;27.910;2023-05-01T08:27:18;101335.38;;;24.79;25.52
37368;BME280;23240;43.210;27.910;2023-05-01T08:29:43;101335.28;;;24.53;27.39
37368;BME280;23240;43.210;27.910;2023-05-01T08:32:08;101338.94;;;24.67;27.77
37368;BME280;23240;43.210;27.910;2023-05-01T08:34:34;101329.44;;;24.63;26.81
37368;BME280;23240;43.210;27.910;2023-05-01T08:37:00;101339.94;;;24.24;27.12
37368;BME280;23240;43.210;27.910;2023-05-01T08:39:25;101328.84;;;24.04;28.52
37368;BME280;23240;43.210;27.910;2023-05-01T08:41:50;101333.22;;;23.99;27.15
37368;BME280;23240;43.210;27.910;2023-05-01T08:44:16;101328.97;;;23.96;27.58
37368;BME280;23240;43.210;27.910;2023-05-01T08:46:45;101328.38;;;23.73;26.96
37368;BME280;23240;43.210;27.910;2023-05-01T08:49:12;101332.16;;;23.50;27.72
37368;BME280;23240;43.210;27.910;2023-05-01T08:51:39;101330.56;;;23.20;28.14
37368;BME280;23240;43.210;27.910;2023-05-01T08:54:05;101338.69;;;23.13;27.93
37368;BME280;23240;43.210;27.910;2023-05-01T08:56:33;101342.28;;;23.35;28.60
37368;BME280;23240;43.210;27.910;2023-05-01T08:58:59;101344.75;;;23.08;28.95
37368;BME280;23240;43.210;27.910;2023-05-01T09:01:25;101346.19;;;22.75;28.77
37368;BME280;23240;43.210;27.910;2023-05-01T09:03:52;101351.00;;;22.43;28.89
37368;BME280;23240;43.210;27.910;2023-05-01T09:06:17;101348.59;;;22.48;29.26
37368;BME280;23240;43.210;27.910;2023-05-01T09:08:43;101355.06;;;22.47;29.95
37368;BME280;23240;43.210;27.910;2023-05-01T09:11:08;101356.63;;;22.86;29.92
37368;BME280;23240;43.210;27.910;2023-05-01T09:13:35;101363.97;;;22.86;30.08
37368;BME280;23240;43.210;27.910;2023-05-01T09:16:00;101360.69;;;22.90;30.04
37368;BME280;23240;43.210;27.910;2023-05-01T09:18:26;101365.22;;;22.83;29.01
37368;BME280;23240;43.210;27.910;2023-05-01T09:20:52;101355.78;;;22.86;29.43
37368;BME280;23240;43.210;27.910;2023-05-01T09:23:17;101356.34;;;22.81;29.94
37368;BME280;23240;43.210;27.910;2023-05-01T09:25:44;101359.19;;;22.73;31.03
37368;BME280;23240;43.210;27.910;2023-05-01T09:28:10;101353.63;;;22.81;30.74
37368;BME280;23240;43.210;27.910;2023-05-01T09:30:36;101354.00;;;22.78;31.17
37368;BME280;23240;43.210;27.910;2023-05-01T09:33:12;101352.78;;;22.66;31.40
37368;BME280;23240;43.210;27.910;2023-05-01T09:35:53;101349.56;;;22.77;32.49
37368;BME280;23240;43.210;27.910;2023-05-01T09:38:23;101353.56;;;22.89;31.52
37368;BME280;23240;43.210;27.910;2023-05-01T09:40:48;101361.78;;;23.11;31.17
37368;BME280;23240;43.210;27.910;2023-05-01T09:43:22;101356.31;;;23.11;31.39
37368;BME280;23240;43.210;27.910;2023-05-01T09:46:07;101363.44;;;22.90;31.08
37368;BME280;23240;43.210;27.910;2023-05-01T09:48:36;101356.00;;;22.54;30.83
37368;BME280;23240;43.210;27.910;2023-05-01T09:51:18;101366.53;;;22.28;31.40
37368;BME280;23240;43.210;27.910;2023-05-01T09:53:44;101360.44;;;22.55;31.75
37368;BME280;23240;43.210;27.910;2023-05-01T09:56:09;101356.38;;;22.66;31.91
37368;BME280;23240;43.210;27.910;2023-05-01T09:58:35;101355.69;;;22.79;31.22
37368;BME280;23240;43.210;27.910;2023-05-01T10:01:00;101359.19;;;22.88;31.30
37368;BME280;23240;43.210;27.910;2023-05-01T10:03:25;101355.72;;;22.94;30.95
37368;BME280;23240;43.210;27.910;2023-05-01T10:05:51;101359.47;;;22.93;29.77
37368;BME280;23240;43.210;27.910;2023-05-01T10:08:16;101357.47;;;22.72;30.43
37368;BME280;23240;43.210;27.910;2023-05-01T10:10:42;101364.19;;;22.40;31.10
37368;BME280;23240;43.210;27.910;2023-05-01T10:13:14;101364.47;;;22.45;31.86
37368;BME280;23240;43.210;27.910;2023-05-01T10:15:40;101362.03;;;22.65;31.30
37368;BME280;23240;43.210;27.910;2023-05-01T10:18:06;101355.59;;;22.57;31.47
37368;BME280;23240;43.210;27.910;2023-05-01T10:20:32;101354.84;;;22.78;31.51
37368;BME280;23240;43.210;27.910;2023-05-01T10:22:58;101352.13;;;22.93;31.07
37368;BME280;23240;43.210;27.910;2023-05-01T10:25:23;101358.16;;;22.89;32.59
37368;BME280;23240;43.210;27.910;2023-05-01T10:27:49;101351.72;;;22.81;31.79
37368;BME280;23240;43.210;27.910;2023-05-01T10:30:16;101365.50;;;22.88;32.34
37368;BME280;23240;43.210;27.910;2023-05-01T10:32:42;101355.03;;;22.92;31.52
37368;BME280;23240;43.210;27.910;2023-05-01T10:35:11;101370.13;;;23.02;31.78
37368;BME280;23240;43.210;27.910;2023-05-01T10:37:42;101366.63;;;23.30;31.62
37368;BME280;23240;43.210;27.910;2023-05-01T10:43:13;101363.25;;;23.28;31.17
37368;BME280;23240;43.210;27.910;2023-05-01T10:45:39;101357.88;;;22.98;30.54
37368;BME280;23240;43.210;27.910;2023-05-01T10:48:05;101360.97;;;22.95;31.22
37368;BME280;23240;43.210;27.910;2023-05-01T10:50:32;101364.69;;;22.58;31.27
37368;BME280;23240;43.210;27.910;2023-05-01T10:53:14;101364.84;;;22.27;31.17
37368;BME280;23240;43.210;27.910;2023-05-01T10:55:41;101366.38;;;22.06;31.30
37368;BME280;23240;43.210;27.910;2023-05-01T10:58:07;101359.19;;;21.76;32.05
37368;BME280;23240;43.210;27.910;2023-05-01T11:00:32;101368.19;;;21.76;32.12
37368;BME280;23240;43.210;27.910;2023-05-01T11:08:29;101366.72;;;22.71;31.34
37368;BME280;23240;43.210;27.910;2023-05-01T11:10:57;101360.97;;;22.95;30.81
37368;BME280;23240;43.210;27.910;2023-05-01T11:16:38;101363.25;;;23.28;30.10
37368;BME280;23240;43.210;27.910;2023-05-01T11:19:04;101370.44;;;23.14;30.09
37368;BME280;23240;43.210;27.910;2023-05-01T11:21:29;101370.78;;;22.90;30.16
37368;BME280;23240;43.210;27.910;2023-05-01T11:23:58;101364.16;;;22.84;30.94
37368;BME280;23240;43.210;27.910;2023-05-01T11:26:23;101355.97;;;22.99;30.64
37368;BME280;23240;43.210;27.910;2023-05-01T11:28:49;101360.69;;;22.90;30.54
37368;BME280;23240;43.210;27.910;2023-05-01T11:31:18;101365.59;;;22.95;30.99
37368;BME280;23240;43.210;27.910;2023-05-01T11:33:43;101359.34;;;22.86;31.38
37368;BME280;23240;43.210;27.910;2023-05-01T11:36:08;101367.22;;;22.89;31.30
37368;BME280;23240;43.210;27.910;2023-05-01T11:38:34;101359.50;;;22.63;31.53
37368;BME280;23240;43.210;27.910;2023-05-01T11:41:00;101365.59;;;22.36;31.54
37368;BME280;23240;43.210;27.910;2023-05-01T11:43:26;101363.25;;;22.10;31.54
37368;BME280;23240;43.210;27.910;2023-05-01T11:45:52;101367.00;;;22.17;31.65
37368;BME280;23240;43.210;27.910;2023-05-01T11:48:26;101371.97;;;22.13;32.02
37368;BME280;23240;43.210;27.910;2023-05-01T11:50:52;101366.91;;;22.25;31.04
37368;BME280;23240;43.210;27.910;2023-05-01T11:53:17;101368.06;;;22.45;30.98
37368;BME280;23240;43.210;27.910;2023-05-01T11:55:43;101358.34;;;22.43;30.86
37368;BME280;23240;43.210;27.910;2023-05-01T11:58:08;101367.97;;;22.39;31.18
37368;BME280;23240;43.210;27.910;2023-05-01T12:00:38;101361.06;;;22.57;31.38
37368;BME280;23240;43.210;27.910;2023-05-01T12:05:30;101362.31;;;22.40;31.04
37368;BME280;23240;43.210;27.910;2023-05-01T12:10:42;101361.63;;;22.23;31.62
37368;BME280;23240;43.210;27.910;2023-05-01T12:13:09;101358.06;;;22.38;31.42
37368;BME280;23240;43.210;27.910;2023-05-01T12:15:35;101355.31;;;22.67;30.78
37368;BME280;23240;43.210;27.910;2023-05-01T12:18:02;101359.28;;;22.79;30.44
37368;BME280;23240;43.210;27.910;2023-05-01T12:20:37;101353.81;;;22.79;30.22
37368;BME280;23240;43.210;27.910;2023-05-01T12:23:03;101364.66;;;22.73;30.53
37368;BME280;23240;43.210;27.910;2023-05-01T12:25:30;101376.88;;;22.47;37.02
37368;BME280;23240;43.210;27.910;2023-05-01T12:27:56;101380.16;;;21.90;39.88
37368;BME280;23240;43.210;27.910;2023-05-01T12:30:24;101377.59;;;21.20;40.17
37368;BME280;23240;43.210;27.910;2023-05-01T12:32:51;101387.81;;;20.78;42.48
37368;BME280;23240;43.210;27.910;2023-05-01T12:35:16;101378.19;;;20.60;40.44
37368;BME280;23240;43.210;27.910;2023-05-01T12:37:41;101388.09;;;20.61;41.43
37368;BME280;23240;43.210;27.910;2023-05-01T12:40:16;101396.06;;;20.62;42.86
37368;BME280;23240;43.210;27.910;2023-05-01T12:42:42;101392.09;;;20.73;42.11
37368;BME280;23240;43.210;27.910;2023-05-01T12:45:08;101389.63;;;20.55;41.43
37368;BME280;23240;43.210;27.910;2023-05-01T12:47:38;101400.19;;;20.25;41.88
37368;BME280;23240;43.210;27.910;2023-05-01T12:50:04;101392.91;;;20.01;41.80
37368;BME280;23240;43.210;27.910;2023-05-01T12:52:29;101395.63;;;19.77;42.65
37368;BME280;23240;43.210;27.910;2023-05-01T12:55:02;101388.63;;;19.50;43.73
37368;BME280;23240;43.210;27.910;2023-05-01T12:57:27;101408.63;;;19.33;44.37
37368;BME280;23240;43.210;27.910;2023-05-01T12:59:57;101413.81;;;19.02;45.50
37368;BME280;23240;43.210;27.910;2023-05-01T13:02:27;101405.19;;;18.72;45.62
37368;BME280;23240;43.210;27.910;2023-05-01T13:05:00;101410.09;;;18.68;42.74
37368;BME280;23240;43.210;27.910;2023-05-01T13:07:29;101412.41;;;18.63;45.67
37368;BME280;23240;43.210;27.910;2023-05-01T13:09:57;101410.81;;;18.53;47.29
37368;BME280;23240;43.210;27.910;2023-05-01T13:12:24;101417.53;;;18.40;47.04